createdAt,value
2019-03-19T00:00:30.680Z,3.63
2019-03-19T00:05:30.664Z,3.69
2019-03-19T00:10:30.664Z,3.69
2019-03-19T00:15:30.653Z,3.69
2019-03-19T00:20:30.668Z,3.69
2019-03-19T00:25:30.741Z,3.75
2019-03-19T00:30:30.691Z,3.81
2019-03-19T00:35:30.688Z,3.88
2019-03-19T00:40:30.686Z,3.81
2019-03-19T00:45:30.674Z,3.75
2019-03-19T00:50:30.673Z,3.63
2019-03-19T00:55:40.124Z,3.56
2019-03-19T01:00:30.785Z,3.5
2019-03-19T01:05:30.679Z,3.44
2019-03-19T01:10:30.690Z,3.44
2019-03-19T01:15:30.816Z,3.38
2019-03-19T01:20:30.730Z,3.25
2019-03-19T01:25:30.712Z,3.13
2019-03-19T01:30:30.690Z,3.06
2019-03-19T01:35:30.693Z,3
2019-03-19T01:40:30.700Z,2.94
2019-03-19T01:45:30.704Z,2.88
2019-03-19T01:50:30.702Z,2.81
2019-03-19T01:55:30.755Z,2.75
2019-03-19T02:00:30.746Z,2.75
2019-03-19T02:05:30.704Z,2.81
2019-03-19T02:10:30.736Z,2.75
2019-03-19T02:15:30.719Z,2.63
2019-03-19T02:20:30.713Z,2.63
2019-03-19T02:25:30.712Z,2.56
2019-03-19T02:30:30.732Z,2.56
2019-03-19T02:35:30.797Z,2.5
2019-03-19T02:40:30.742Z,2.5
2019-03-19T02:45:30.725Z,2.38
2019-03-19T02:50:30.728Z,2.38
2019-03-19T02:55:30.884Z,2.38
2019-03-19T03:00:30.735Z,2.31
2019-03-19T03:05:30.732Z,2.31
2019-03-19T03:10:30.747Z,2.25
2019-03-19T03:15:30.737Z,2.25
2019-03-19T03:20:30.739Z,2.25
2019-03-19T03:25:30.743Z,2.13
2019-03-19T03:30:30.756Z,2.13
2019-03-19T03:35:30.744Z,2.13
2019-03-19T03:40:30.745Z,2.06
2019-03-19T03:45:30.760Z,2.13
2019-03-19T03:50:30.752Z,2.13
2019-03-19T03:55:31.303Z,2.13
2019-03-19T04:00:30.782Z,2.13
2019-03-19T04:05:30.755Z,2.19
2019-03-19T04:10:30.780Z,2.25
2019-03-19T04:15:30.776Z,2.31
2019-03-19T04:20:30.766Z,2.38
2019-03-19T04:25:30.780Z,2.5
2019-03-19T04:30:30.773Z,2.5
2019-03-19T04:35:30.787Z,2.56
2019-03-19T04:40:30.775Z,2.56
2019-03-19T04:45:30.784Z,2.56
2019-03-19T04:50:30.786Z,2.63
2019-03-19T04:55:30.778Z,2.63
2019-03-19T05:00:30.790Z,2.69
2019-03-19T05:05:30.789Z,2.69
2019-03-19T05:10:30.791Z,2.63
2019-03-19T05:15:30.787Z,2.63
2019-03-19T05:20:30.792Z,2.63
2019-03-19T05:25:30.800Z,2.56
2019-03-19T05:30:30.793Z,2.56
2019-03-19T05:35:30.801Z,2.5
2019-03-19T05:40:30.819Z,2.56
2019-03-19T05:45:30.818Z,2.75
2019-03-19T05:50:30.813Z,2.81
2019-03-19T05:55:30.804Z,2.81
2019-03-19T06:00:30.811Z,2.81
2019-03-19T06:05:30.807Z,2.69
2019-03-19T06:10:30.824Z,2.63
2019-03-19T06:15:30.815Z,2.63
2019-03-19T06:20:30.814Z,2.75
2019-03-19T06:25:30.850Z,3
2019-03-19T06:30:30.832Z,3.25
2019-03-19T06:35:30.839Z,3.5
2019-03-19T06:40:30.881Z,3.63
2019-03-19T06:45:30.830Z,3.44
2019-03-19T06:50:30.834Z,3.38
2019-03-19T06:55:30.848Z,3.88
2019-03-19T07:00:30.836Z,3.88
2019-03-19T07:05:30.832Z,4
2019-03-19T07:10:30.844Z,4.06
2019-03-19T07:15:30.845Z,4.06
2019-03-19T07:20:30.840Z,4.31
2019-03-19T07:25:30.867Z,5.25
2019-03-19T07:30:30.847Z,5.19
2019-03-19T07:35:30.845Z,5.38
2019-03-19T07:40:30.866Z,5.75
2019-03-19T07:45:30.864Z,5.88
2019-03-19T07:50:30.864Z,5.88
2019-03-19T07:55:30.880Z,5.56
2019-03-19T08:00:30.869Z,5.75
2019-03-19T08:05:33.217Z,6.5
2019-03-19T08:10:30.869Z,6
2019-03-19T08:15:30.867Z,5.94
2019-03-19T08:20:30.878Z,6.38
2019-03-19T08:25:30.888Z,7.13
2019-03-19T08:30:30.870Z,7
2019-03-19T08:35:30.896Z,6.94
2019-03-19T08:40:30.887Z,6.69
2019-03-19T08:45:30.874Z,6.38
2019-03-19T08:50:30.892Z,6.56
2019-03-19T08:55:30.903Z,7.31
2019-03-19T09:00:30.890Z,7.5
2019-03-19T09:05:30.910Z,6.69
2019-03-19T09:10:30.889Z,6.38
2019-03-19T09:15:30.888Z,6.25
2019-03-19T09:20:30.911Z,6
2019-03-19T09:25:30.939Z,5
2019-03-19T09:30:30.902Z,4.44
2019-03-19T09:35:30.918Z,4.44
2019-03-19T09:40:30.927Z,4.81
2019-03-19T09:45:30.908Z,6.44
2019-03-19T09:50:30.914Z,6.56
2019-03-19T09:55:30.929Z,5.88
2019-03-19T10:00:30.936Z,5.19
2019-03-19T10:05:30.950Z,4.94
2019-03-19T10:10:30.994Z,5.25
2019-03-19T10:15:30.921Z,5.69
2019-03-19T10:20:30.923Z,6
2019-03-19T10:25:30.937Z,6.63
2019-03-19T10:30:30.924Z,6.69
2019-03-19T10:35:30.982Z,7.06
2019-03-19T10:40:30.947Z,7.38
2019-03-19T10:45:31.115Z,7.44
2019-03-19T10:50:31.154Z,7.44
2019-03-19T10:55:30.991Z,7.88
2019-03-19T11:00:30.951Z,7.75
2019-03-19T11:05:30.975Z,7.81
2019-03-19T11:10:35.932Z,7.75
2019-03-19T11:15:31.725Z,8.31
2019-03-19T11:20:30.955Z,9.06
2019-03-19T11:25:30.974Z,8.31
2019-03-19T11:30:31.039Z,8.19
2019-03-19T11:35:30.991Z,8.25
2019-03-19T11:40:30.969Z,8
2019-03-19T11:45:30.957Z,7.81
2019-03-19T11:50:33.125Z,7.5
2019-03-19T11:55:30.979Z,7.06
2019-03-19T12:00:30.964Z,6.44
2019-03-19T12:05:30.968Z,5.75
2019-03-19T12:10:30.993Z,5.81
2019-03-19T12:15:30.980Z,5.81
2019-03-19T12:20:31.007Z,5.88
2019-03-19T12:25:31.453Z,6.25
2019-03-19T12:30:31.018Z,6.38
2019-03-19T12:35:31.095Z,6.44
2019-03-19T12:40:36.593Z,6.69
2019-03-19T12:45:30.999Z,6.81
2019-03-19T12:50:30.988Z,6.81
2019-03-19T12:55:31.027Z,6.88
2019-03-19T13:00:34.410Z,6.88
2019-03-19T13:05:30.994Z,7
2019-03-19T13:10:31.011Z,6.88
2019-03-19T13:15:31.016Z,6.88
2019-03-19T13:20:31.006Z,6.81
2019-03-19T13:25:31.066Z,6.44
2019-03-19T13:30:31.006Z,6.5
2019-03-19T13:35:31.028Z,6.69
2019-03-19T13:40:31.031Z,6.69
2019-03-19T13:45:31.017Z,7.06
2019-03-19T13:50:31.033Z,7.25
2019-03-19T13:55:31.090Z,7.38
2019-03-19T14:00:31.021Z,7.5
2019-03-19T14:05:31.015Z,7.56
2019-03-19T14:10:31.068Z,7.5
2019-03-19T14:15:31.024Z,7.31
2019-03-19T14:20:31.032Z,7.31
2019-03-19T14:25:31.023Z,7.63
2019-03-19T14:30:31.030Z,7.63
2019-03-19T14:35:37.108Z,7.63
2019-03-19T14:40:31.060Z,7.56
2019-03-19T14:45:31.036Z,7.75
2019-03-19T14:50:31.040Z,7.81
2019-03-19T14:55:31.035Z,7.75
2019-03-19T15:00:31.038Z,7.69
2019-03-19T15:05:31.053Z,7.63
2019-03-19T15:10:31.065Z,7.44
2019-03-19T15:15:31.052Z,7.38
2019-03-19T15:20:31.047Z,7.31
2019-03-19T15:25:31.098Z,7.06
2019-03-19T15:30:31.055Z,7.06
2019-03-19T15:35:31.052Z,7.06
2019-03-19T15:40:31.091Z,7
2019-03-19T15:45:31.066Z,7.06
2019-03-19T15:50:31.110Z,7.06
2019-03-19T15:55:31.067Z,7.13
2019-03-19T16:00:31.070Z,7.25
2019-03-19T16:05:31.065Z,7.38
2019-03-19T16:10:31.094Z,7.38
2019-03-19T16:15:31.099Z,7.31
2019-03-19T16:20:31.082Z,7.25
2019-03-19T16:25:31.099Z,7.13
2019-03-19T16:30:31.082Z,7.13
2019-03-19T16:35:31.107Z,7.06
2019-03-19T16:40:31.119Z,7.06
2019-03-19T16:45:31.100Z,7.06
2019-03-19T16:50:31.111Z,7
2019-03-19T16:55:31.146Z,7
2019-03-19T17:00:31.094Z,6.94
2019-03-19T17:05:31.092Z,6.88
2019-03-19T17:10:31.114Z,6.81
2019-03-19T17:15:31.102Z,6.75
2019-03-19T17:20:31.095Z,6.75
2019-03-19T17:25:31.148Z,6.69
2019-03-19T17:30:31.108Z,6.63
2019-03-19T17:35:31.115Z,6.63
2019-03-19T17:40:40.791Z,6.63
2019-03-19T17:45:31.111Z,6.63
2019-03-19T17:50:31.110Z,6.56
2019-03-19T17:55:31.138Z,6.56
2019-03-19T18:00:31.120Z,6.5
2019-03-19T18:05:31.120Z,6.5
2019-03-19T18:10:31.131Z,6.5
2019-03-19T18:15:31.147Z,6.44
2019-03-19T18:20:31.138Z,6.44
2019-03-19T18:25:31.158Z,6.31
2019-03-19T18:30:31.159Z,6.31
2019-03-19T18:35:31.143Z,6.25
2019-03-19T18:40:31.138Z,6.25
2019-03-19T18:45:31.163Z,6.19
2019-03-19T18:50:31.172Z,6.19
2019-03-19T18:55:31.145Z,6.25
2019-03-19T19:00:31.146Z,6.19
2019-03-19T19:05:31.141Z,6.13
2019-03-19T19:10:31.144Z,6.13
2019-03-19T19:15:31.154Z,6.06
2019-03-19T19:20:31.162Z,6.06
2019-03-19T19:25:31.189Z,5.94
2019-03-19T19:30:31.158Z,5.94
2019-03-19T19:35:31.162Z,5.94
2019-03-19T19:40:31.190Z,5.94
2019-03-19T19:45:31.186Z,5.88
2019-03-19T19:50:31.204Z,5.88
2019-03-19T19:55:31.182Z,5.88
2019-03-19T20:00:31.282Z,5.88
2019-03-19T20:05:31.169Z,5.88
2019-03-19T20:10:31.194Z,5.88
2019-03-19T20:15:31.190Z,5.88
2019-03-19T20:20:31.185Z,5.88
2019-03-19T20:25:31.223Z,5.88
2019-03-19T20:30:31.181Z,5.88
2019-03-19T20:35:31.188Z,5.88
2019-03-19T20:40:31.210Z,5.88
2019-03-19T20:45:31.191Z,5.88
2019-03-19T20:50:31.221Z,5.88
2019-03-19T20:55:31.256Z,5.88
2019-03-19T21:00:31.196Z,5.88
2019-03-19T21:05:31.224Z,5.81
2019-03-19T21:10:31.204Z,5.75
2019-03-19T21:15:31.196Z,5.75
2019-03-19T21:20:31.206Z,5.69
2019-03-19T21:25:31.235Z,5.69
2019-03-19T21:30:31.208Z,5.63
2019-03-19T21:35:31.220Z,5.63
2019-03-19T21:40:31.230Z,5.56
2019-03-19T21:45:31.233Z,5.44
2019-03-19T21:50:31.213Z,5.38
2019-03-19T21:55:31.258Z,5.31
2019-03-19T22:00:31.221Z,5.25
2019-03-19T22:05:31.260Z,5.13
2019-03-19T22:10:31.269Z,5.06
2019-03-19T22:15:31.232Z,5
2019-03-19T22:20:31.230Z,4.88
2019-03-19T22:25:31.251Z,4.69
2019-03-19T22:30:31.261Z,4.56
2019-03-19T22:35:31.245Z,4.5
2019-03-19T22:40:31.255Z,4.38
2019-03-19T22:45:31.252Z,4.31
2019-03-19T22:50:31.295Z,4.31
2019-03-19T22:55:31.261Z,4.25
2019-03-19T23:00:31.311Z,4.19
2019-03-19T23:05:31.250Z,4.06
2019-03-19T23:10:31.291Z,4
2019-03-19T23:15:31.254Z,3.88
2019-03-19T23:20:31.258Z,3.75
2019-03-19T23:25:31.252Z,3.75
2019-03-19T23:30:31.260Z,3.69
2019-03-19T23:35:31.281Z,3.69
2019-03-19T23:40:31.267Z,3.63
2019-03-19T23:45:31.279Z,3.56
2019-03-19T23:50:31.268Z,3.5
2019-03-19T23:55:31.308Z,3.38
